Time;durP1;ratioP1;P1;durP2;ratioP2;P2;SDS_P1;SDS_P2;PMS_P1;PMS_P2;Temp;Humidity;BMP_temperature;BMP_pressure;BME280_temperature;BME280_humidity;BME280_pressure;Samples;Min_cycle;Max_cycle;Signal;HPM_P1;HPM_P2
2021/12/27 00:01:20;;;;;;;8.57;4.00;;;;;;;5.80;65.29;99895.41;5066964;28;20089;-85
2021/12/27 00:03:49;;;;;;;7.65;4.60;;;;;;;6.28;64.45;99892.91;5079523;28;20074;-84
2021/12/27 00:06:15;;;;;;;7.43;4.25;;;;;;;6.39;64.07;99888.44;5085947;28;20404;-84
2021/12/27 00:08:42;;;;;;;8.38;4.50;;;;;;;5.99;65.07;99888.25;5067412;28;20031;-84
2021/12/27 00:11:09;;;;;;;7.75;4.07;;;;;;;6.28;64.55;99888.59;5083677;28;20468;-84
2021/12/27 00:13:35;;;;;;;8.00;3.88;;;;;;;6.44;63.51;99879.72;5080269;28;20370;-84
2021/12/27 00:16:01;;;;;;;6.78;3.80;;;;;;;6.41;64.15;99876.34;5078568;28;20222;-84
2021/12/27 00:18:26;;;;;;;6.38;4.03;;;;;;;6.24;64.38;99880.97;5071340;28;20032;-84
2021/12/27 00:20:52;;;;;;;6.78;4.00;;;;;;;6.44;64.07;99871.13;5087027;28;20175;-84
2021/12/27 00:23:18;;;;;;;7.45;4.10;;;;;;;6.20;64.08;99869.00;5083430;28;20094;-84
2021/12/27 00:25:43;;;;;;;7.47;4.07;;;;;;;6.40;63.48;99866.91;5066233;28;20060;-84
2021/12/27 00:28:09;;;;;;;7.20;3.90;;;;;;;6.33;63.33;99866.19;5082360;28;20468;-84
2021/12/27 00:30:34;;;;;;;7.60;4.30;;;;;;;6.38;62.79;99868.66;5079524;28;20097;-85
2021/12/27 00:33:00;;;;;;;9.70;4.75;;;;;;;6.44;63.13;99868.56;5061458;28;20036;-84
2021/12/27 00:35:26;;;;;;;5.88;3.53;;;;;;;6.41;62.78;99868.59;5071193;28;20032;-84
2021/12/27 00:37:52;;;;;;;8.95;4.60;;;;;;;6.31;63.16;99874.81;5084207;28;20492;-84
2021/12/27 00:40:18;;;;;;;6.30;3.83;;;;;;;6.55;62.90;99875.25;5087630;28;20030;-85
2021/12/27 00:42:44;;;;;;;6.63;3.97;;;;;;;6.54;62.60;99881.28;5082532;28;20140;-85
2021/12/27 00:45:10;;;;;;;8.45;3.78;;;;;;;6.55;62.49;99880.41;5081621;28;20047;-84
2021/12/27 00:47:36;;;;;;;6.75;3.70;;;;;;;6.32;63.78;99874.78;5085785;28;20085;-84
2021/12/27 00:50:02;;;;;;;6.63;4.00;;;;;;;6.41;63.16;99876.34;5082295;28;20040;-84
2021/12/27 00:52:28;;;;;;;7.40;4.00;;;;;;;6.60;62.23;99870.03;5087190;28;20031;-84
2021/12/27 00:54:53;;;;;;;6.75;3.83;;;;;;;6.47;62.93;99861.66;5084150;28;20021;-85
2021/12/27 00:57:19;;;;;;;5.22;3.17;;;;;;;6.54;63.05;99863.22;5087822;28;20035;-85
2021/12/27 00:59:44;;;;;;;6.40;3.60;;;;;;;6.37;62.67;99862.66;5081764;28;20034;-84
2021/12/27 01:02:10;;;;;;;7.93;4.10;;;;;;;6.42;63.42;99855.69;5082012;28;20036;-84
2021/12/27 01:04:35;;;;;;;9.40;3.97;;;;;;;6.50;62.70;99859.00;5084554;28;20377;-83
2021/12/27 01:07:01;;;;;;;6.97;3.50;;;;;;;6.43;62.79;99856.53;5059613;28;20464;-84
2021/12/27 01:09:38;;;;;;;6.88;3.63;;;;;;;6.42;63.38;99852.25;5050777;28;20052;-85
2021/12/27 01:15:08;;;;;;;8.02;4.60;;;;;;;6.55;62.69;99856.34;5086201;28;20097;-84
2021/12/27 01:17:35;;;;;;;7.22;4.20;;;;;;;6.47;63.07;99858.19;5082903;28;20039;-84
2021/12/27 01:20:05;;;;;;;8.55;4.47;;;;;;;6.51;62.44;99844.38;5087696;28;20040;-84
2021/12/27 01:22:30;;;;;;;8.10;3.97;;;;;;;6.50;62.72;99847.84;5069438;28;20395;-84
2021/12/27 01:24:55;;;;;;;7.88;4.22;;;;;;;6.54;62.32;99847.72;5084318;28;20024;-84
2021/12/27 01:27:21;;;;;;;7.55;3.95;;;;;;;6.00;64.38;99854.72;5081574;28;20423;-84
2021/12/27 01:29:46;;;;;;;6.55;3.90;;;;;;;6.34;63.23;99847.22;5065846;28;20466;-85
2021/12/27 01:32:12;;;;;;;9.27;4.60;;;;;;;6.50;63.25;99840.09;5083853;28;20044;-84
2021/12/27 01:34:37;;;;;;;6.75;4.07;;;;;;;6.48;63.20;99842.69;5082244;28;20097;-84
2021/12/27 01:37:05;;;;;;;7.78;3.90;;;;;;;6.51;63.23;99834.06;5063123;28;20050;-84
2021/12/27 01:39:30;;;;;;;7.28;4.15;;;;;;;6.35;63.90;99850.66;5077970;28;20485;-84
2021/12/27 01:41:56;;;;;;;7.28;3.88;;;;;;;6.13;64.34;99842.47;5062179;28;20043;-85
2021/12/27 01:44:21;;;;;;;6.90;3.50;;;;;;;6.50;63.77;99843.53;5060147;28;20032;-84
2021/12/27 01:46:47;;;;;;;8.13;4.13;;;;;;;6.46;63.62;99839.25;5081193;28;20036;-84
2021/12/27 01:49:12;;;;;;;7.10;4.05;;;;;;;6.55;62.84;99843.44;5082738;28;20163;-84
2021/12/27 01:51:40;;;;;;;6.55;4.28;;;;;;;6.63;63.34;99849.31;5087216;28;20086;-84
2021/12/27 01:54:06;;;;;;;7.22;4.13;;;;;;;6.57;62.60;99844.28;5059166;28;20027;-85
2021/12/27 01:56:32;;;;;;;8.20;3.85;;;;;;;6.47;63.61;99846.16;5082207;28;20373;-84
2021/12/27 01:58:58;;;;;;;7.90;4.03;;;;;;;6.59;63.81;99837.34;5081577;28;20028;-85
2021/12/27 02:01:25;;;;;;;8.02;4.30;;;;;;;6.44;63.82;99845.34;5087410;28;20036;-84
2021/12/27 02:03:52;;;;;;;7.20;3.80;;;;;;;6.57;63.39;99849.44;5069264;28;20039;-85
2021/12/27 02:06:19;;;;;;;9.82;4.35;;;;;;;6.56;63.39;99834.81;5083635;28;20098;-84
2021/12/27 02:08:45;;;;;;;8.98;4.40;;;;;;;6.65;63.45;99839.81;5083284;28;20047;-85
2021/12/27 02:11:13;;;;;;;6.82;3.88;;;;;;;6.55;63.18;99833.97;5082787;28;20032;-84
2021/12/27 02:13:43;;;;;;;5.97;3.38;;;;;;;6.56;63.45;99847.72;5084302;28;20024;-84
2021/12/27 02:16:20;;;;;;;7.47;3.83;;;;;;;6.66;63.00;99836.34;5065365;28;20599;-84
2021/12/27 02:18:48;;;;;;;6.10;3.08;;;;;;;6.55;63.28;99835.69;5082516;28;20148;-85
2021/12/27 02:21:14;;;;;;;6.45;3.72;;;;;;;6.44;63.64;99829.84;5064718;28;20123;-84
2021/12/27 02:23:41;;;;;;;5.35;3.55;;;;;;;6.44;62.89;99832.44;5083417;28;20033;-85
2021/12/27 02:26:08;;;;;;;5.32;3.47;;;;;;;6.50;63.10;99827.19;5081656;28;20463;-85
2021/12/27 02:28:33;;;;;;;7.18;3.72;;;;;;;6.62;63.05;99821.81;5083271;28;20442;-85
2021/12/27 02:31:00;;;;;;;6.25;3.72;;;;;;;6.65;63.37;99829.47;5083046;28;20044;-85
2021/12/27 02:33:25;;;;;;;7.03;3.63;;;;;;;6.34;63.80;99828.31;5072591;28;20033;-85
2021/12/27 02:35:55;;;;;;;5.57;3.35;;;;;;;6.56;63.54;99821.91;5070087;28;20052;-84
2021/12/27 02:38:27;;;;;;;6.65;3.63;;;;;;;6.51;64.00;99822.00;5079987;28;20130;-85
2021/12/27 02:40:55;;;;;;;7.38;3.97;;;;;;;6.57;63.51;99821.88;5088205;28;20040;-84
2021/12/27 02:43:23;;;;;;;5.63;3.80;;;;;;;6.50;63.51;99816.88;5087610;28;20032;-84
2021/12/27 02:45:55;;;;;;;6.60;3.75;;;;;;;6.59;63.34;99819.28;5086438;28;20036;-85
2021/12/27 02:48:23;;;;;;;6.60;3.65;;;;;;;6.59;63.63;99821.84;5088004;28;20528;-84
2021/12/27 02:50:50;;;;;;;6.00;3.72;;;;;;;6.67;63.34;99819.97;5085826;28;20043;-84
2021/12/27 02:53:16;;;;;;;6.72;3.58;;;;;;;6.69;63.87;99817.38;5067758;28;20078;-84
2021/12/27 02:55:42;;;;;;;6.80;3.60;;;;;;;6.65;63.36;99819.16;5087798;28;20408;-82
2021/12/27 02:58:07;;;;;;;7.95;3.97;;;;;;;6.74;63.31;99813.81;5088037;28;20336;-84
2021/12/27 03:00:37;;;;;;;6.15;3.30;;;;;;;6.46;63.80;99812.63;5083840;28;20104;-84
2021/12/27 03:03:02;;;;;;;6.60;3.35;;;;;;;6.69;64.14;99809.63;5072680;28;20043;-84
2021/12/27 03:05:29;;;;;;;7.25;4.07;;;;;;;6.71;63.39;99813.03;5065939;28;20460;-84
2021/12/27 03:07:56;;;;;;;6.38;3.65;;;;;;;6.77;63.41;99810.31;5083592;28;20396;-84
2021/12/27 03:10:25;;;;;;;5.93;3.78;;;;;;;6.64;63.98;99803.69;5081966;28;20510;-84
2021/12/27 03:12:52;;;;;;;4.57;2.70;;;;;;;6.45;64.21;99808.34;5067839;28;20458;-85
2021/12/27 03:15:19;;;;;;;7.53;3.35;;;;;;;6.56;63.62;99809.03;5059828;28;20029;-85
2021/12/27 03:17:48;;;;;;;6.18;3.67;;;;;;;6.63;63.30;99797.69;5087397;28;20035;-84
2021/12/27 03:20:16;;;;;;;4.78;2.88;;;;;;;6.75;63.81;99797.41;5085441;28;20518;-84
2021/12/27 03:22:42;;;;;;;6.40;3.35;;;;;;;6.78;63.01;99791.38;5088698;28;20036;-84
2021/12/27 03:25:17;;;;;;;6.80;3.55;;;;;;;6.72;63.53;99786.34;5062588;28;20067;-85
2021/12/27 03:27:43;;;;;;;5.38;3.05;;;;;;;6.77;63.29;99774.19;5088467;28;20062;-85
2021/12/27 03:30:11;;;;;;;7.22;3.50;;;;;;;6.75;63.59;99784.50;5086245;28;20496;-84
2021/12/27 03:32:37;;;;;;;5.85;3.53;;;;;;;6.69;64.23;99786.41;5067915;28;20044;-85
2021/12/27 03:35:12;;;;;;;6.03;3.80;;;;;;;6.69;63.80;99788.97;5067307;28;20040;-84
2021/12/27 03:37:38;;;;;;;;;;;;;;;6.64;63.93;99789.06;5064355;28;20532;-84
2021/12/27 03:40:06;;;;;;;5.88;3.55;;;;;;;6.55;64.83;99792.69;5087384;28;19919;-85
2021/12/27 03:42:32;;;;;;;9.38;4.45;;;;;;;6.48;64.47;99783.34;5082234;28;20045;-85
2021/12/27 03:44:58;;;;;;;9.05;4.70;;;;;;;6.62;64.56;99784.81;5070958;28;20029;-84
2021/12/27 03:47:23;;;;;;;8.82;4.60;;;;;;;6.65;64.78;99788.19;5085209;28;20614;-85
2021/12/27 03:49:49;;;;;;;8.13;4.30;;;;;;;6.53;64.69;99789.28;5084694;28;20040;-84
2021/12/27 03:52:14;;;;;;;7.95;4.70;;;;;;;6.68;64.30;99784.69;5068295;28;20037;-84
2021/12/27 03:54:40;;;;;;;10.23;4.97;;;;;;;6.58;65.50;99786.59;5081547;28;20478;-84
2021/12/27 03:57:05;;;;;;;10.57;4.38;;;;;;;6.66;65.17;99778.72;5084947;28;20047;-84
2021/12/27 04:02:09;;;;;;;7.63;4.20;;;;;;;6.64;64.54;99777.88;5075339;28;20051;-84
2021/12/27 04:04:35;;;;;;;8.75;4.13;;;;;;;6.66;64.63;99771.84;5067229;28;20487;-84
2021/12/27 04:07:00;;;;;;;8.20;3.80;;;;;;;6.72;64.43;99769.13;5065493;28;20067;-84
2021/12/27 04:09:27;;;;;;;8.48;4.85;;;;;;;6.76;64.84;99772.47;5083051;28;20051;-85
2021/12/27 04:11:53;;;;;;;8.63;3.70;;;;;;;6.75;64.16;99763.03;5079533;28;20097;-85
2021/12/27 04:14:18;;;;;;;8.70;4.22;;;;;;;6.65;64.52;99759.81;5076942;28;20439;-85
2021/12/27 04:16:44;;;;;;;9.10;4.80;;;;;;;6.70;65.15;99757.13;5080029;28;20454;-84
2021/12/27 04:19:09;;;;;;;8.20;4.25;;;;;;;6.61;65.01;99750.41;5086121;28;20587;-85
2021/12/27 04:21:35;;;;;;;10.27;4.95;;;;;;;6.77;64.52;99749.22;5079892;28;20109;-85
2021/12/27 04:24:01;;;;;;;8.30;4.03;;;;;;;6.63;64.71;99761.56;5059423;28;20407;-84
2021/12/27 04:26:26;;;;;;;6.28;3.63;;;;;;;6.69;65.24;99758.88;5083076;28;20483;-84
2021/12/27 04:28:52;;;;;;;8.60;3.95;;;;;;;6.73;64.38;99752.75;5079488;28;20339;-84
2021/12/27 04:31:18;;;;;;;7.68;3.75;;;;;;;6.57;66.00;99754.78;5085747;28;20057;-84
2021/12/27 04:33:44;;;;;;;8.70;3.88;;;;;;;6.52;66.21;99755.78;5080548;28;20040;-84
2021/12/27 04:36:10;;;;;;;6.95;4.13;;;;;;;6.55;65.65;99753.13;5077586;28;20028;-84
2021/12/27 04:38:36;;;;;;;5.53;3.72;;;;;;;6.78;65.20;99750.91;5085735;28;20054;-84
2021/12/27 04:41:05;;;;;;;7.65;4.00;;;;;;;6.70;64.93;99746.78;5092111;28;20435;-84
2021/12/27 04:43:31;;;;;;;7.28;3.88;;;;;;;6.72;64.91;99740.75;5080394;28;20485;-84
2021/12/27 04:45:56;;;;;;;8.20;3.60;;;;;;;6.76;64.71;99742.34;5088324;28;20043;-85
2021/12/27 04:48:24;;;;;;;5.40;3.17;;;;;;;6.58;65.44;99740.16;5081779;28;20036;-85
2021/12/27 04:50:50;;;;;;;4.85;3.28;;;;;;;6.73;65.79;99732.09;5062029;28;20039;-85
2021/12/27 04:53:16;;;;;;;6.57;3.13;;;;;;;6.78;64.67;99740.56;5085598;28;20032;-84
2021/12/27 04:55:44;;;;;;;5.55;3.15;;;;;;;6.72;65.37;99739.88;5086531;28;20080;-84
2021/12/27 04:58:10;;;;;;;5.53;2.97;;;;;;;6.72;64.94;99729.56;5083555;28;20469;-84
2021/12/27 05:00:37;;;;;;;5.03;3.25;;;;;;;6.46;66.18;99733.50;5067138;28;20039;-84
2021/12/27 05:03:03;;;;;;;6.05;3.53;;;;;;;6.47;66.10;99726.63;5063141;28;20622;-84
2021/12/27 05:05:32;;;;;;;4.65;3.08;;;;;;;6.66;65.92;99732.28;5084342;28;20051;-84
2021/12/27 05:07:59;;;;;;;5.43;3.40;;;;;;;6.69;65.92;99730.47;5067893;28;20434;-84
2021/12/27 05:10:26;;;;;;;5.93;3.25;;;;;;;6.77;65.16;99727.72;5081010;28;20460;-84
2021/12/27 05:12:52;;;;;;;6.57;3.30;;;;;;;6.82;65.33;99733.63;5084797;28;20125;-85
2021/12/27 05:15:17;;;;;;;8.88;3.20;;;;;;;6.78;65.58;99722.50;5086189;28;20501;-84
2021/12/27 05:17:43;;;;;;;6.72;3.30;;;;;;;6.83;65.02;99730.16;5083444;28;20153;-84
2021/12/27 05:20:09;;;;;;;7.85;3.47;;;;;;;6.88;64.54;99723.16;5079924;28;20400;-85
2021/12/27 05:22:36;;;;;;;4.75;2.70;;;;;;;6.87;65.15;99713.75;5086840;28;20031;-84
2021/12/27 05:25:02;;;;;;;6.72;2.83;;;;;;;6.88;64.62;99720.56;5067537;28;20062;-85
2021/12/27 05:27:27;;;;;;;5.82;2.78;;;;;;;6.87;64.99;99711.97;5082839;28;20457;-84
2021/12/27 05:29:53;;;;;;;6.68;3.60;;;;;;;6.89;64.89;99720.56;5084657;28;20052;-84
2021/12/27 05:32:18;;;;;;;6.25;3.13;;;;;;;6.86;64.91;99715.47;5083836;28;20040;-84
2021/12/27 05:34:44;;;;;;;6.20;3.00;;;;;;;6.81;65.28;99714.69;5066033;28;20365;-84
2021/12/27 05:37:10;;;;;;;7.03;4.22;;;;;;;6.82;65.55;99713.81;5082034;28;20128;-85
2021/12/27 05:39:36;;;;;;;6.13;3.70;;;;;;;6.78;64.93;99717.34;5087106;28;20131;-84
2021/12/27 05:42:02;;;;;;;8.10;4.13;;;;;;;6.58;65.88;99711.78;5075501;28;20043;-85
2021/12/27 05:44:28;;;;;;;10.57;5.35;;;;;;;6.78;65.39;99704.44;5078962;28;20513;-84
2021/12/27 05:46:56;;;;;;;14.27;5.65;;;;;;;6.65;65.14;99705.63;5082646;28;20180;-85
2021/12/27 05:49:23;;;;;;;17.05;6.47;;;;;;;6.72;65.21;99707.19;5082392;28;20028;-84
2021/12/27 05:51:48;;;;;;;18.75;5.55;;;;;;;6.67;66.04;99700.41;5083685;28;20047;-85
2021/12/27 05:54:14;;;;;;;15.43;5.13;;;;;;;6.68;65.94;99707.28;5070148;28;20043;-85
2021/12/27 05:56:40;;;;;;;16.50;5.15;;;;;;;6.80;65.97;99696.69;5082650;28;20122;-84
2021/12/27 05:59:06;;;;;;;17.83;6.07;;;;;;;6.83;65.36;99701.78;5085455;28;20403;-85
2021/12/27 06:01:34;;;;;;;10.80;4.82;;;;;;;6.64;66.34;99696.16;5062499;28;20028;-84
2021/12/27 06:03:59;;;;;;;6.93;3.50;;;;;;;6.61;66.54;99690.22;5058646;28;20048;-85
2021/12/27 06:06:26;;;;;;;9.63;4.68;;;;;;;6.70;65.84;99690.88;5083736;28;20054;-85
2021/12/27 06:08:52;;;;;;;10.63;4.80;;;;;;;6.49;66.10;99693.91;5062587;28;20036;-84
2021/12/27 06:11:18;;;;;;;12.45;5.55;;;;;;;6.58;65.76;99688.56;5089732;28;20447;-85
2021/12/27 06:13:43;;;;;;;13.40;6.22;;;;;;;6.68;66.36;99700.38;5085360;28;20090;-85
2021/12/27 06:16:09;;;;;;;9.25;5.05;;;;;;;6.80;65.05;99701.84;5072891;28;20055;-85
2021/12/27 06:18:35;;;;;;;9.93;5.25;;;;;;;6.60;65.27;99702.28;5087061;28;20115;-84
2021/12/27 06:21:01;;;;;;;7.93;4.32;;;;;;;6.60;65.26;99696.28;5088931;28;20484;-84
2021/12/27 06:23:26;;;;;;;10.73;5.68;;;;;;;6.65;65.62;99694.44;5066885;28;20529;-85
2021/12/27 06:25:51;;;;;;;12.02;5.93;;;;;;;6.69;65.59;99703.81;5071578;28;20500;-85
2021/12/27 06:28:17;;;;;;;10.82;5.10;;;;;;;6.50;66.56;99686.16;5084742;28;20387;-84
2021/12/27 06:30:43;;;;;;;7.00;4.38;;;;;;;6.68;66.19;99694.38;5064269;28;20287;-85
2021/12/27 06:33:10;;;;;;;9.27;5.55;;;;;;;6.41;66.44;99695.78;5083763;28;20511;-84
2021/12/27 06:35:36;;;;;;;10.27;4.95;;;;;;;6.53;66.40;99698.13;5088799;28;20032;-85
2021/12/27 06:38:02;;;;;;;5.93;3.60;;;;;;;6.68;65.69;99699.53;5084490;28;20034;-84
2021/12/27 06:40:28;;;;;;;7.82;4.68;;;;;;;6.68;65.56;99702.13;5086178;28;20099;-84
2021/12/27 06:42:54;;;;;;;13.15;5.90;;;;;;;6.51;66.90;99705.06;5087968;28;20031;-85
2021/12/27 06:45:19;;;;;;;9.82;5.93;;;;;;;6.39;66.74;99705.28;5089608;28;20039;-85
2021/12/27 06:47:45;;;;;;;6.80;4.22;;;;;;;6.78;64.97;99696.69;5087466;28;20044;-85
2021/12/27 06:50:11;;;;;;;5.93;3.38;;;;;;;6.67;66.04;99703.84;5084248;28;20044;-84
2021/12/27 06:52:37;;;;;;;5.60;3.05;;;;;;;6.62;65.58;99705.69;5082458;28;20059;-84
2021/12/27 06:55:03;;;;;;;6.43;3.45;;;;;;;6.75;65.24;99701.94;5070436;28;20082;-85
2021/12/27 06:57:30;;;;;;;4.90;2.80;;;;;;;6.53;66.13;99699.00;5062430;28;20615;-85
2021/12/27 06:59:56;;;;;;;5.90;2.70;;;;;;;6.68;65.80;99696.94;5085340;28;20032;-85
2021/12/27 07:02:22;;;;;;;7.10;3.13;;;;;;;6.69;65.16;99701.25;5078174;28;20072;-85
2021/12/27 07:04:47;;;;;;;6.28;3.35;;;;;;;6.64;65.58;99697.88;5081378;28;20039;-85
2021/12/27 07:07:13;;;;;;;4.60;2.85;;;;;;;6.59;66.20;99700.59;5088105;28;21232;-85
2021/12/27 07:09:38;;;;;;;6.82;3.70;;;;;;;6.74;65.38;99696.81;5069912;28;20038;-85
2021/12/27 07:12:05;;;;;;;7.57;3.55;;;;;;;6.74;64.96;99691.66;5077415;28;20032;-83
2021/12/27 07:14:30;;;;;;;7.10;3.30;;;;;;;6.66;65.43;99699.59;5082957;28;20032;-84
2021/12/27 07:16:56;;;;;;;5.47;3.45;;;;;;;6.44;66.46;99698.31;5067958;28;20041;-83
2021/12/27 07:19:21;;;;;;;5.80;3.33;;;;;;;6.58;65.41;99699.72;5084706;28;20024;-84
2021/12/27 07:21:47;;;;;;;6.93;3.50;;;;;;;6.67;65.61;99693.50;5064896;28;20314;-84
2021/12/27 07:24:12;;;;;;;6.00;3.47;;;;;;;6.79;65.33;99695.81;5082203;28;20044;-84
2021/12/27 07:26:38;;;;;;;8.93;4.22;;;;;;;6.77;65.15;99692.44;5066603;28;20526;-84
2021/12/27 07:29:03;;;;;;;8.25;4.43;;;;;;;6.70;65.57;99690.00;5085029;28;20045;-84
2021/12/27 07:31:29;;;;;;;6.53;3.67;;;;;;;6.66;66.30;99684.09;5087392;28;20051;-84
2021/12/27 07:33:54;;;;;;;7.63;4.18;;;;;;;6.74;66.09;99678.75;5084070;28;20032;-84
2021/12/27 07:36:20;;;;;;;6.60;3.17;;;;;;;6.74;65.62;99683.91;5083173;28;20036;-84
2021/12/27 07:38:46;;;;;;;8.15;3.95;;;;;;;6.51;66.14;99685.25;5063412;28;20501;-84
2021/12/27 07:41:12;;;;;;;7.85;3.60;;;;;;;6.50;66.27;99681.00;5051195;28;20055;-85
2021/12/27 07:43:38;;;;;;;8.15;3.92;;;;;;;6.38;66.75;99680.38;5082769;28;20036;-84
2021/12/27 07:46:03;;;;;;;7.13;3.75;;;;;;;6.28;67.52;99681.44;5061618;28;20032;-84
2021/12/27 07:48:29;;;;;;;9.07;3.92;;;;;;;6.50;65.98;99678.41;5060899;28;20403;-84
2021/12/27 07:50:55;;;;;;;8.18;4.05;;;;;;;6.52;65.71;99680.94;5085203;28;20040;-85
2021/12/27 07:53:20;;;;;;;7.40;4.07;;;;;;;6.57;65.70;99673.97;5082857;28;20067;-84
2021/12/27 07:55:46;;;;;;;6.32;3.53;;;;;;;6.64;65.66;99675.53;5087049;28;20039;-84
2021/12/27 07:58:11;;;;;;;8.18;3.97;;;;;;;6.57;66.58;99682.53;5083065;28;20724;-85
2021/12/27 08:00:37;;;;;;;6.93;3.60;;;;;;;6.63;66.72;99679.00;5083703;28;20052;-85
2021/12/27 08:03:02;;;;;;;6.97;3.72;;;;;;;6.48;66.78;99680.16;5080983;28;20123;-84
2021/12/27 08:05:28;;;;;;;6.97;3.90;;;;;;;6.56;67.98;99677.44;5083154;28;20032;-85
2021/12/27 08:07:54;;;;;;;8.60;3.90;;;;;;;6.49;66.94;99675.84;5088281;28;20032;-85
2021/12/27 08:10:19;;;;;;;9.27;3.85;;;;;;;6.56;65.98;99673.13;5085614;28;20039;-85
2021/12/27 08:12:45;;;;;;;7.03;3.45;;;;;;;6.58;66.30;99675.66;5062461;28;20044;-85
2021/12/27 08:15:11;;;;;;;5.38;3.13;;;;;;;6.54;66.91;99676.63;5071026;28;20036;-85
2021/12/27 08:17:38;;;;;;;7.30;4.55;;;;;;;6.59;66.65;99677.38;5082250;28;20527;-85
2021/12/27 08:20:06;;;;;;;7.90;3.88;;;;;;;6.42;67.69;99675.13;5081063;28;20548;-85
2021/12/27 08:22:32;;;;;;;6.07;3.25;;;;;;;6.58;67.04;99673.06;5048777;28;20052;-85
2021/12/27 08:24:57;;;;;;;6.88;3.47;;;;;;;6.40;68.02;99668.28;5077064;28;20040;-85
2021/12/27 08:27:25;;;;;;;8.55;3.80;;;;;;;6.41;67.32;99673.41;5078339;28;20047;-85
2021/12/27 08:29:51;;;;;;;7.30;3.90;;;;;;;6.69;66.82;99667.69;5082233;28;20092;-84
2021/12/27 08:32:17;;;;;;;6.72;3.78;;;;;;;6.46;67.53;99673.31;5068639;28;20118;-85
2021/12/27 08:34:43;;;;;;;7.88;3.88;;;;;;;6.56;67.64;99665.38;5085011;28;20249;-85
2021/12/27 08:37:08;;;;;;;9.00;4.05;;;;;;;6.52;68.29;99660.31;5066644;28;20035;-85
2021/12/27 08:39:34;;;;;;;10.18;4.70;;;;;;;6.72;66.96;99653.00;5066244;28;20033;-85
2021/12/27 08:42:01;;;;;;;8.20;4.63;;;;;;;6.76;67.23;99652.03;5085403;28;20029;-85
2021/12/27 08:44:27;;;;;;;7.97;5.07;;;;;;;6.85;67.24;99653.53;5085744;28;20032;-85
2021/12/27 08:46:53;;;;;;;8.68;4.85;;;;;;;6.85;66.73;99650.94;5082962;28;20426;-85
2021/12/27 08:49:19;;;;;;;6.60;3.95;;;;;;;6.63;68.01;99655.78;5084462;28;20079;-85
2021/12/27 08:51:44;;;;;;;7.97;3.80;;;;;;;6.76;67.31;99648.59;5083040;28;20107;-85
2021/12/27 08:54:10;;;;;;;9.82;4.25;;;;;;;6.74;67.42;99645.19;5081890;28;20172;-85
2021/12/27 08:56:38;;;;;;;8.60;4.30;;;;;;;6.83;67.41;99640.69;5085489;28;20036;-85
2021/12/27 08:59:04;;;;;;;6.78;3.58;;;;;;;6.80;67.78;99648.50;5062410;28;20134;-85
2021/12/27 09:01:30;;;;;;;6.53;4.22;;;;;;;6.94;67.16;99643.84;5076893;28;20040;-85
2021/12/27 09:03:55;;;;;;;8.13;4.35;;;;;;;6.80;68.45;99639.91;5077380;28;20044;-85
2021/12/27 09:06:21;;;;;;;7.28;4.75;;;;;;;6.83;68.08;99635.50;5046128;28;20048;-85
2021/12/27 09:08:46;;;;;;;7.28;4.03;;;;;;;6.73;69.04;99636.59;5067428;28;20388;-85
2021/12/27 09:11:12;;;;;;;7.95;3.95;;;;;;;6.75;69.23;99634.00;5069634;28;20127;-85
2021/12/27 09:13:37;;;;;;;7.80;3.28;;;;;;;6.88;68.31;99630.22;5091312;28;20376;-84
2021/12/27 09:16:04;;;;;;;9.38;2.83;;;;;;;6.79;69.57;99639.03;5083200;28;20110;-85
2021/12/27 09:18:31;;;;;;;7.10;3.45;;;;;;;6.70;70.31;99628.94;5079107;28;20035;-85
2021/12/27 09:20:58;;;;;;;8.02;3.70;;;;;;;6.75;70.49;99629.66;5079692;28;20502;-85
2021/12/27 09:23:24;;;;;;;5.85;3.00;;;;;;;7.02;68.95;99625.56;5081559;28;20036;-85
2021/12/27 09:25:50;;;;;;;6.15;3.47;;;;;;;7.08;69.38;99626.28;5084935;28;20036;-85
2021/12/27 09:28:15;;;;;;;8.57;3.38;;;;;;;7.04;69.02;99623.81;5083175;28;20059;-85
2021/12/27 09:30:41;;;;;;;6.05;3.17;;;;;;;6.87;69.40;99628.56;5081655;28;20074;-85
2021/12/27 09:33:07;;;;;;;6.05;3.38;;;;;;;7.02;69.62;99623.84;5083256;28;20036;-85
2021/12/27 09:35:33;;;;;;;5.65;3.30;;;;;;;7.07;70.22;99641.81;5092187;28;20192;-85
2021/12/27 09:37:59;;;;;;;6.88;3.40;;;;;;;7.22;68.89;99645.75;5068227;28;20088;-85
2021/12/27 09:40:25;;;;;;;6.90;3.67;;;;;;;7.18;69.49;99641.53;5083931;28;20039;-85
2021/12/27 09:42:52;;;;;;;5.88;3.40;;;;;;;7.17;69.63;99639.88;5066694;28;20036;-85
2021/12/27 09:45:19;;;;;;;8.02;3.55;;;;;;;7.22;69.30;99643.16;5077695;28;20067;-85
2021/12/27 09:47:47;;;;;;;7.25;3.33;;;;;;;7.25;69.63;99645.69;5082355;28;20111;-85
2021/12/27 09:50:17;;;;;;;5.85;3.20;;;;;;;7.19;69.97;99648.41;5084297;28;20036;-76
2021/12/27 09:52:44;;;;;;;10.13;3.95;;;;;;;7.16;70.68;99641.59;5083279;28;20031;-76
2021/12/27 09:55:10;;;;;;;6.93;3.03;;;;;;;7.32;69.75;99634.28;5085720;28;20132;-76
2021/12/27 09:57:36;;;;;;;5.32;2.95;;;;;;;7.57;69.00;99620.69;5079624;28;20044;-76
2021/12/27 10:00:04;;;;;;;5.15;3.10;;;;;;;7.41;69.56;99601.31;5082265;28;20380;-76
2021/12/27 10:02:33;;;;;;;4.80;3.33;;;;;;;7.47;69.52;99597.72;5076547;28;20561;-76
2021/12/27 10:04:59;;;;;;;5.97;2.95;;;;;;;7.49;69.96;99598.53;5080907;28;20044;-76
2021/12/27 10:07:25;;;;;;;9.45;3.17;;;;;;;7.50;69.31;99602.78;5082219;28;20105;-76
2021/12/27 10:09:59;;;;;;;3.95;2.47;;;;;;;7.39;69.25;99595.34;5074929;28;20052;-76
2021/12/27 10:12:28;;;;;;;5.57;2.70;;;;;;;7.30;70.69;99605.06;5077706;28;20040;-76
2021/12/27 10:15:03;;;;;;;5.47;2.83;;;;;;;7.32;70.48;99600.69;5080762;28;20088;-76
2021/12/27 10:17:31;;;;;;;5.68;3.05;;;;;;;7.32;70.58;99611.03;5090155;28;20572;-76
2021/12/27 10:20:09;;;;;;;5.78;3.05;;;;;;;7.46;70.50;99612.41;5063970;28;20130;-76
2021/12/27 10:22:44;;;;;;;5.70;2.83;;;;;;;7.38;70.61;99605.69;5077140;28;20056;-76
2021/12/27 10:25:15;;;;;;;4.18;2.92;;;;;;;7.39;70.58;99602.25;5083682;28;20051;-76
2021/12/27 10:27:41;;;;;;;4.13;2.47;;;;;;;7.27;71.27;99598.25;5075961;28;20093;-76
2021/12/27 10:30:16;;;;;;;4.95;2.55;;;;;;;7.42;70.83;99597.00;5078368;28;20037;-76
2021/12/27 10:32:42;;;;;;;5.53;2.55;;;;;;;7.32;70.17;99587.78;5082305;28;20044;-76
2021/12/27 10:35:10;;;;;;;5.63;2.53;;;;;;;7.51;70.76;99584.69;5071450;28;20516;-76
2021/12/27 10:37:37;;;;;;;6.80;2.90;;;;;;;7.47;70.48;99584.78;5084666;28;20024;-77
2021/12/27 10:40:11;;;;;;;4.63;2.80;;;;;;;7.49;70.35;99583.88;5085880;28;20028;-76
2021/12/27 10:42:47;;;;;;;3.50;2.28;;;;;;;7.60;69.72;99574.09;5084381;28;20063;-76
2021/12/27 10:45:16;;;;;;;3.78;2.35;;;;;;;7.61;70.23;99570.59;5079661;28;20404;-76
2021/12/27 10:47:51;;;;;;;2.60;2.03;;;;;;;7.52;70.90;99573.44;5057589;28;20037;-76
2021/12/27 10:50:26;;;;;;;4.25;2.58;;;;;;;7.90;69.05;99571.53;5081468;28;20109;-76
2021/12/27 10:52:57;;;;;;;9.55;3.10;;;;;;;7.72;68.83;99574.63;5080649;28;20116;-76
2021/12/27 10:55:38;;;;;;;3.90;2.30;;;;;;;7.61;69.74;99562.03;5075328;28;20484;-76
2021/12/27 10:58:23;;;;;;;3.55;2.28;;;;;;;7.59;69.79;99564.63;5087660;28;20497;-76
2021/12/27 11:00:51;;;;;;;3.40;2.33;;;;;;;7.65;70.09;99572.22;5087260;28;20073;-76
2021/12/27 11:03:40;;;;;;;3.58;2.38;;;;;;;7.76;68.80;99558.16;5078878;28;20045;-76
2021/12/27 11:06:07;;;;;;;3.70;2.30;;;;;;;7.59;69.53;99563.78;5086825;28;20574;-76
2021/12/27 11:08:36;;;;;;;3.58;2.28;;;;;;;7.72;68.83;99564.28;5085245;28;20043;-76
2021/12/27 11:11:02;;;;;;;3.60;2.17;;;;;;;7.60;69.07;99563.75;5076551;28;20116;-76
2021/12/27 11:13:30;;;;;;;4.70;2.42;;;;;;;7.71;69.01;99560.84;5084401;28;20063;-76
2021/12/27 11:15:56;;;;;;;3.67;2.58;;;;;;;7.88;68.98;99553.47;5088633;28;20461;-76
2021/12/27 11:18:22;;;;;;;4.45;2.25;;;;;;;7.84;68.87;99556.19;5085598;28;20135;-76
2021/12/27 11:20:52;;;;;;;3.92;2.58;;;;;;;7.86;68.84;99552.66;5085181;28;20435;-76
2021/12/27 11:23:21;;;;;;;4.47;2.70;;;;;;;7.91;69.51;99552.53;5085959;28;20123;-81
2021/12/27 11:25:47;;;;;;;3.03;2.00;;;;;;;8.01;68.97;99546.19;5083392;28;20501;-81
2021/12/27 11:28:34;;;;;;;2.90;1.90;;;;;;;8.08;68.47;99545.13;5053823;28;20433;-81
2021/12/27 11:31:14;;;;;;;2.65;1.65;;;;;;;8.09;68.49;99536.44;5082742;28;20538;-81
2021/12/27 11:34:12;;;;;;;3.35;2.00;;;;;;;8.06;69.52;99529.63;5081112;28;20123;-81
2021/12/27 11:36:42;;;;;;;2.88;2.00;;;;;;;8.13;68.43;99523.41;5068088;28;20032;-81
2021/12/27 11:39:21;;;;;;;5.60;1.80;;;;;;;8.10;68.81;99523.50;5077872;28;20082;-81
2021/12/27 11:42:03;;;;;;;2.88;1.60;;;;;;;7.96;69.66;99532.56;5082820;28;20040;-81
2021/12/27 11:44:37;;;;;;;3.00;2.05;;;;;;;8.13;69.24;99517.38;5083591;28;20043;-81
2021/12/27 11:47:04;;;;;;;2.55;1.77;;;;;;;8.29;68.57;99515.16;5084587;28;20032;-81